Date,TemperatureHighF,TemperatureAvgF,TemperatureLowF,DewpointHighF,DewpointAvgF,DewpointLowF,HumidityHigh,HumidityAvg,HumidityLow,PressureMaxIn,PressureMinIn,WindSpeedMaxMPH,WindSpeedAvgMPH,GustSpeedMaxMPH,PrecipitationSumIn
2013-1-1,25.0,23.7,22.0,15.0,13.3,11.0,72,64,57,29.77,29.15,19,13,31,0.00
2013-1-2,35.0,32.3,20.0,21.0,17.8,14.0,76,55,47,29.56,29.17,30,22,46,0.00
2013-1-3,34.0,26.1,17.0,17.0,11.2,6.0,63,53,43,29.66,29.56,26,17,40,0.00
2013-1-4,17.0,14.4,11.0,7.0,5.6,4.0,73,67,62,29.84,29.63,17,9,26,0.00
2013-1-5,17.0,14.8,12.0,7.0,5.4,4.0,69,65,64,29.84,29.37,18,11,30,0.00
2013-1-6,17.0,15.5,13.0,8.0,6.9,5.0,70,67,65,29.39,29.20,17,9,26,0.00
2013-1-7,17.0,12.6,-7.0,11.0,7.6,-10.0,99,80,71,29.44,29.13,15,8,24,0.00
2013-1-8,8.0,2.9,-9.0,3.0,-0.9,-13.0,94,83,79,30.05,29.44,6,2,11,0.00
2013-1-9,7.0,-4.5,-17.0,3.0,-8.3,-21.0,97,83,74,30.12,29.88,10,3,19,0.00
2013-1-10,10.0,4.8,-7.0,3.0,-1.3,-10.0,85,75,70,30.08,29.85,10,6,17,0.00
2013-1-11,13.0,8.7,-6.0,6.0,1.5,-10.0,82,72,65,30.17,29.86,10,6,17,0.00
2013-1-12,20.0,11.6,-2.0,11.0,4.7,-5.0,86,73,67,30.18,29.75,18,8,29,0.00
2013-1-13,28.0,25.9,20.0,21.0,17.7,11.0,78,70,65,29.77,29.56,18,9,27,0.00
2013-1-14,44.0,34.7,27.0,32.0,28.0,21.0,100,77,53,29.68,29.30,32,11,47,0.00
2013-1-15,27.0,12.2,-7.0,27.0,9.8,-10.0,99,90,80,30.22,29.82,11,4,21,0.00
2013-1-16,10.0,1.3,-11.0,6.0,-2.4,-14.0,94,84,71,30.21,29.77,10,3,17,0.00
2013-1-17,8.0,3.6,-5.0,4.0,-0.7,-10.0,86,81,76,30.06,29.73,9,5,15,0.00
2013-1-18,-5.0,-16.1,-27.0,-10.0,-20.6,-32.0,100,79,67,30.35,30.05,14,2,26,0.00
2013-1-19,-2.0,-3.8,-7.0,-11.0,-12.7,-15.0,68,64,62,30.36,30.03,25,17,39,0.00
2013-1-20,6.0,2.6,-2.0,1.0,-5.9,-10.0,80,66,62,30.04,29.95,27,15,42,0.00
2013-1-21,6.0,-0.5,-10.0,1.0,-6.0,-12.0,98,77,70,30.08,29.95,6,2,9,0.00
2013-1-22,14.0,5.9,-1.0,8.0,1.4,-5.0,85,81,75,29.95,29.65,14,3,21,0.00
2013-1-23,11.0,8.2,5.0,6.0,4.3,1.0,87,83,79,29.65,29.52,6,3,8,0.00
2013-1-24,7.0,-0.7,-9.0,3.0,-5.7,-15.0,84,78,73,29.73,29.56,9,5,15,0.00
2013-1-25,-9.0,-15.2,-24.0,-15.0,-21.6,-30.0,75,72,67,29.89,29.73,9,6,16,0.00
2013-1-26,-23.0,-33.3,-46.0,-28.0,-37.8,-50.0,98,77,66,30.02,29.89,7,2,9,0.00
2013-1-27,-28.0,-37.7,-48.0,-34.0,-42.4,-52.0,100,76,63,30.46,30.02,4,2,5,0.00
2013-1-28,-20.0,-32.8,-46.0,-29.0,-39.3,-52.0,87,70,61,30.50,29.98,24,8,44,0.00
2013-1-29,-12.0,-15.5,-20.0,-22.0,-24.8,-29.0,66,61,59,30.00,29.83,24,17,38,0.00
2013-1-30,-1.0,-6.3,-12.0,-9.0,-15.2,-22.0,67,64,61,29.90,29.68,22,14,34,0.00
2013-1-31,9.0,5.7,0.0,4.0,-0.1,-8.0,84,76,67,30.06,29.73,11,3,18,0.00